Time;durP1;ratioP1;P1;durP2;ratioP2;P2;SDS_P1;SDS_P2;PMS_P1;PMS_P2;Temp;Humidity;BMP_temperature;BMP_pressure;BME280_temperature;BME280_humidity;BME280_pressure;Samples;Min_cycle;Max_cycle;Signal;HPM_P1;HPM_P2
2022/07/02 00:02:04;;;;;;;7.70;3.80;;;;;;;;;;4874184;29;20049;-73
2022/07/02 00:04:37;;;;;;;4.75;3.47;;;;;;;;;;4874236;29;20052;-72
2022/07/02 00:07:08;;;;;;;4.57;3.50;;;;;;;;;;4873958;29;20560;-73
2022/07/02 00:09:38;;;;;;;4.05;3.20;;;;;;;;;;4874736;29;20053;-72
2022/07/02 00:12:10;;;;;;;4.65;3.50;;;;;;;;;;4875449;29;20057;-72
2022/07/02 00:14:41;;;;;;;6.75;3.13;;;;;;;;;;4874809;29;20127;-72
2022/07/02 00:17:11;;;;;;;5.37;2.97;;;;;;;;;;4874363;29;20099;-72
2022/07/02 00:19:41;;;;;;;7.80;2.80;;;;;;;;;;4874792;29;20053;-72
2022/07/02 00:22:13;;;;;;;6.22;2.83;;;;;;;;;;4873671;29;20049;-72
2022/07/02 00:24:45;;;;;;;3.90;2.78;;;;;;;;;;4875220;29;20064;-74
2022/07/02 00:27:18;;;;;;;9.80;3.08;;;;;;;;;;4874524;29;20061;-73
2022/07/02 00:29:57;;;;;;;3.85;2.90;;;;;;;;;;4873276;29;20060;-73
2022/07/02 00:32:35;;;;;;;5.10;3.05;;;;;;;;;;4874881;29;20054;-70
2022/07/02 00:35:09;;;;;;;6.82;2.85;;;;;;;;;;4873759;29;20496;-73
2022/07/02 00:37:39;;;;;;;3.17;2.67;;;;;;;;;;4874687;29;20444;-72
2022/07/02 00:40:10;;;;;;;5.97;3.47;;;;;;;;;;4874168;29;20056;-70
2022/07/02 00:42:40;;;;;;;4.40;3.17;;;;;;;;;;4873926;29;20053;-73
2022/07/02 00:45:11;;;;;;;7.22;4.25;;;;;;;;;;4873911;29;20416;-74
2022/07/02 00:47:43;;;;;;;8.40;3.80;;;;;;;;;;4873873;29;20056;-73
2022/07/02 00:50:13;;;;;;;3.55;3.22;;;;;;;;;;4874048;29;20053;-72
2022/07/02 00:52:43;;;;;;;8.73;3.25;;;;;;;;;;4874255;29;20677;-72
2022/07/02 00:55:13;;;;;;;7.32;3.65;;;;;;;;;;4874487;29;20059;-73
2022/07/02 00:57:48;;;;;;;8.45;4.75;;;;;;;;;;4874172;29;20056;-72
2022/07/02 01:00:19;;;;;;;4.95;3.40;;;;;;;;;;4873934;29;20057;-73
2022/07/02 01:02:50;;;;;;;5.63;3.47;;;;;;;;;;4873893;29;20049;-73
2022/07/02 01:05:20;;;;;;;7.00;3.27;;;;;;;;;;4873970;29;20064;-72
2022/07/02 01:10:16;;;;;;;5.50;3.50;;;;;;;;;;4873527;29;20060;-72
2022/07/02 01:10:45;;;;;;;5.63;3.63;;;;;;;;;;4870788;29;20535;-70
2022/07/02 01:13:17;;;;;;;5.45;3.55;;;;;;;;;;4872784;29;20053;-72
2022/07/02 01:15:50;;;;;;;4.63;3.17;;;;;;;;;;4873144;29;20041;-72
2022/07/02 01:18:20;;;;;;;13.68;4.22;;;;;;;;;;4871705;29;20053;-72
2022/07/02 01:20:50;;;;;;;4.10;3.38;;;;;;;;;;4872779;29;20049;-70
2022/07/02 01:23:20;;;;;;;9.05;3.63;;;;;;;;;;4872502;29;20068;-74
2022/07/02 01:25:51;;;;;;;5.55;3.72;;;;;;;;;;4869638;29;20049;-72
2022/07/02 01:28:22;;;;;;;6.93;3.70;;;;;;;;;;4871228;29;20499;-71
2022/07/02 01:30:53;;;;;;;9.98;3.63;;;;;;;;;;4873499;29;20072;-72
2022/07/02 01:33:22;;;;;;;6.82;4.32;;;;;;;;;;4873114;29;20053;-72
2022/07/02 01:35:52;;;;;;;6.10;4.00;;;;;;;;;;4872746;29;20060;-71
2022/07/02 01:38:22;;;;;;;4.57;3.35;;;;;;;;;;4873029;29;20524;-72
2022/07/02 01:41:38;;;;;;;6.25;3.70;;;;;;;;;;4873305;29;20060;-71
2022/07/02 01:43:45;;;;;;;5.70;3.38;;;;;;;;;;4873434;29;20060;-72
2022/07/02 01:46:15;;;;;;;5.13;3.67;;;;;;;;;;4873465;29;20056;-71
2022/07/02 01:48:44;;;;;;;3.58;3.28;;;;;;;;;;4871960;29;20535;-72
2022/07/02 01:51:14;;;;;;;6.32;3.15;;;;;;;;;;4873149;29;20057;-70
2022/07/02 01:53:44;;;;;;;7.05;3.42;;;;;;;;;;4873610;29;20061;-71
2022/07/02 01:56:14;;;;;;;4.97;3.38;;;;;;;;;;4873278;29;20060;-71
2022/07/02 01:58:44;;;;;;;8.40;3.47;;;;;;;;;;4873352;29;20056;-71
2022/07/02 02:01:14;;;;;;;5.05;3.78;;;;;;;;;;4872896;29;20162;-72
2022/07/02 02:03:43;;;;;;;10.02;5.20;;;;;;;;;;4872590;29;20049;-72
2022/07/02 02:06:13;;;;;;;5.72;3.95;;;;;;;;;;4872998;29;20049;-72
2022/07/02 02:08:43;;;;;;;6.72;4.40;;;;;;;;;;4873618;29;20056;-71
2022/07/02 02:11:13;;;;;;;4.88;3.58;;;;;;;;;;4873497;29;20060;-71
2022/07/02 02:13:43;;;;;;;4.75;3.55;;;;;;;;;;4872865;29;20061;-70
2022/07/02 02:16:13;;;;;;;6.53;3.47;;;;;;;;;;4873037;29;20044;-73
2022/07/02 02:18:43;;;;;;;5.80;3.58;;;;;;;;;;4871736;29;20056;-71
2022/07/02 02:21:12;;;;;;;6.55;3.70;;;;;;;;;;4873328;29;20052;-72
2022/07/02 02:23:42;;;;;;;12.35;3.80;;;;;;;;;;4873651;29;20083;-71
2022/07/02 02:26:12;;;;;;;3.30;2.97;;;;;;;;;;4872661;29;20053;-71
2022/07/02 02:28:42;;;;;;;8.73;3.80;;;;;;;;;;4873007;29;20416;-71
2022/07/02 02:31:12;;;;;;;4.45;3.38;;;;;;;;;;4872896;29;20496;-71
2022/07/02 02:33:41;;;;;;;5.10;3.60;;;;;;;;;;4873254;29;20060;-71
2022/07/02 02:36:11;;;;;;;5.13;3.50;;;;;;;;;;4873064;29;20057;-71
2022/07/02 02:38:41;;;;;;;4.63;3.25;;;;;;;;;;4872703;29;20053;-72
2022/07/02 02:41:11;;;;;;;5.72;3.67;;;;;;;;;;4873222;29;20045;-71
2022/07/02 02:43:42;;;;;;;6.03;3.58;;;;;;;;;;4872534;29;20060;-72
2022/07/02 02:46:11;;;;;;;6.15;4.05;;;;;;;;;;4875427;29;20803;-71
2022/07/02 02:48:41;;;;;;;4.78;3.67;;;;;;;;;;4875970;29;20053;-71
2022/07/02 02:51:15;;;;;;;5.20;4.13;;;;;;;;;;4875928;29;20523;-72
2022/07/02 02:53:45;;;;;;;7.93;3.72;;;;;;;;;;4876574;29;20053;-71
2022/07/02 02:56:15;;;;;;;8.95;4.30;;;;;;;;;;4876262;29;20065;-70
2022/07/02 02:58:44;;;;;;;5.05;3.95;;;;;;;;;;4876477;29;20057;-71
2022/07/02 03:01:14;;;;;;;4.10;3.42;;;;;;;;;;4876325;29;20056;-72
2022/07/02 03:03:44;;;;;;;10.25;3.70;;;;;;;;;;4876329;29;20053;-71
2022/07/02 03:06:14;;;;;;;5.20;3.58;;;;;;;;;;4874808;29;20064;-72
2022/07/02 03:08:45;;;;;;;5.90;4.33;;;;;;;;;;4875918;29;20052;-72
2022/07/02 03:11:14;;;;;;;5.32;3.80;;;;;;;;;;4875877;29;20808;-75
2022/07/02 03:13:44;;;;;;;5.72;3.58;;;;;;;;;;4876009;29;20416;-71
2022/07/02 03:16:14;;;;;;;6.35;4.20;;;;;;;;;;4876046;29;20053;-71
2022/07/02 03:18:45;;;;;;;6.57;3.53;;;;;;;;;;4875766;29;20056;-70
2022/07/02 03:21:14;;;;;;;6.13;4.03;;;;;;;;;;4875482;29;20048;-71
2022/07/02 03:23:44;;;;;;;6.50;3.67;;;;;;;;;;4875898;29;20041;-71
2022/07/02 03:26:14;;;;;;;4.88;3.72;;;;;;;;;;4874689;29;20057;-71
2022/07/02 03:28:44;;;;;;;6.07;4.18;;;;;;;;;;4875231;29;20057;-71
2022/07/02 03:31:14;;;;;;;7.88;3.58;;;;;;;;;;4876248;29;20385;-72
2022/07/02 03:33:43;;;;;;;6.30;3.58;;;;;;;;;;4875494;29;20045;-71
2022/07/02 03:36:13;;;;;;;5.72;3.17;;;;;;;;;;4875440;29;20045;-71
2022/07/02 03:38:43;;;;;;;6.20;3.42;;;;;;;;;;4875080;29;20045;-71
2022/07/02 03:41:13;;;;;;;8.27;3.38;;;;;;;;;;4875224;29;20527;-72
2022/07/02 03:43:43;;;;;;;5.90;3.60;;;;;;;;;;4875392;29;20049;-71
2022/07/02 03:46:12;;;;;;;3.80;3.20;;;;;;;;;;4875305;29;20045;-71
2022/07/02 03:48:43;;;;;;;4.68;3.55;;;;;;;;;;4875458;29;20416;-71
2022/07/02 03:51:13;;;;;;;6.07;3.78;;;;;;;;;;4876127;29;20817;-71
2022/07/02 03:53:43;;;;;;;11.75;3.50;;;;;;;;;;4875800;29;20568;-72
2022/07/02 03:56:13;;;;;;;6.90;3.60;;;;;;;;;;4873960;29;20064;-72
2022/07/02 03:58:43;;;;;;;7.50;4.20;;;;;;;;;;4875270;29;20053;-71
2022/07/02 04:01:13;;;;;;;7.50;3.38;;;;;;;;;;4874912;29;20053;-71
2022/07/02 04:03:43;;;;;;;6.07;3.13;;;;;;;;;;4874781;29;20052;-71
2022/07/02 04:06:12;;;;;;;4.25;3.45;;;;;;;;;;4875033;29;20055;-72
2022/07/02 04:08:42;;;;;;;5.57;3.25;;;;;;;;;;4874474;29;20424;-71
2022/07/02 04:11:12;;;;;;;7.93;3.10;;;;;;;;;;4875205;29;20053;-73
2022/07/02 04:13:42;;;;;;;7.65;3.45;;;;;;;;;;4874971;29;20416;-71
2022/07/02 04:16:12;;;;;;;4.63;3.40;;;;;;;;;;4873701;29;20053;-72
2022/07/02 04:18:43;;;;;;;7.30;3.00;;;;;;;;;;4875130;29;20053;-72
2022/07/02 04:21:33;;;;;;;5.10;2.70;;;;;;;;;;4874839;29;20052;-72
2022/07/02 04:24:03;;;;;;;5.63;3.28;;;;;;;;;;4874631;29;20045;-71
2022/07/02 04:26:33;;;;;;;7.07;3.20;;;;;;;;;;4874704;29;20057;-72
2022/07/02 04:29:03;;;;;;;3.90;3.50;;;;;;;;;;4873242;29;20076;-72
2022/07/02 04:31:33;;;;;;;4.80;3.42;;;;;;;;;;4874487;29;20496;-72
2022/07/02 04:34:05;;;;;;;9.50;3.03;;;;;;;;;;4874599;29;20056;-71
2022/07/02 04:36:36;;;;;;;4.88;3.45;;;;;;;;;;4874490;29;20462;-71
2022/07/02 04:39:07;;;;;;;;;;;;;;;;;;4874820;29;20432;-71
2022/07/02 04:41:36;;;;;;;10.52;3.03;;;;;;;;;;4874399;29;19932;-71
2022/07/02 04:44:06;;;;;;;9.13;3.72;;;;;;;;;;4874767;29;20428;-71
2022/07/02 04:46:36;;;;;;;5.60;2.97;;;;;;;;;;4874773;29;20877;-71
2022/07/02 04:49:06;;;;;;;5.82;3.53;;;;;;;;;;4873869;29;20060;-71
2022/07/02 04:51:36;;;;;;;7.47;3.45;;;;;;;;;;4874003;29;20424;-72
2022/07/02 04:54:06;;;;;;;8.80;3.53;;;;;;;;;;4874085;29;20056;-72
2022/07/02 04:56:36;;;;;;;5.53;3.72;;;;;;;;;;4873993;29;20053;-72
2022/07/02 04:59:05;;;;;;;6.32;3.30;;;;;;;;;;4874044;29;20060;-72
2022/07/02 05:01:35;;;;;;;6.00;3.80;;;;;;;;;;4873858;29;20792;-71
2022/07/02 05:04:05;;;;;;;5.75;3.17;;;;;;;;;;4873918;29;20049;-72
2022/07/02 05:06:35;;;;;;;11.43;3.50;;;;;;;;;;4874020;29;20048;-71
2022/07/02 05:09:05;;;;;;;4.35;3.00;;;;;;;;;;4873693;29;20088;-71
2022/07/02 05:11:35;;;;;;;3.83;3.22;;;;;;;;;;4873917;29;20045;-72
2022/07/02 05:14:05;;;;;;;5.60;3.38;;;;;;;;;;4873953;29;20053;-71
2022/07/02 05:16:35;;;;;;;10.32;3.03;;;;;;;;;;4873334;29;20056;-71
2022/07/02 05:19:05;;;;;;;6.00;3.10;;;;;;;;;;4873392;29;20044;-71
2022/07/02 05:21:36;;;;;;;4.10;3.40;;;;;;;;;;4873806;29;20053;-71
2022/07/02 05:24:06;;;;;;;8.13;3.33;;;;;;;;;;4873380;29;20066;-71
2022/07/02 05:26:36;;;;;;;4.63;3.40;;;;;;;;;;4873534;29;20056;-72
2022/07/02 05:29:06;;;;;;;5.25;3.10;;;;;;;;;;4872937;29;20072;-72
2022/07/02 05:31:36;;;;;;;7.10;3.50;;;;;;;;;;4872414;29;20505;-71
2022/07/02 05:34:06;;;;;;;4.28;3.40;;;;;;;;;;4874132;29;20060;-72
2022/07/02 05:36:36;;;;;;;4.75;3.20;;;;;;;;;;4873635;29;20057;-72
2022/07/02 05:39:06;;;;;;;5.07;3.40;;;;;;;;;;4872317;29;20065;-72
2022/07/02 05:41:35;;;;;;;4.82;3.47;;;;;;;;;;4873393;29;20061;-72
2022/07/02 05:44:05;;;;;;;8.32;3.50;;;;;;;;;;4873376;29;20060;-72
2022/07/02 05:46:35;;;;;;;4.88;3.00;;;;;;;;;;4873433;29;20052;-71
2022/07/02 05:49:07;;;;;;;12.07;3.38;;;;;;;;;;4873137;29;20386;-72
2022/07/02 05:51:37;;;;;;;5.28;3.05;;;;;;;;;;4873723;29;20488;-73
2022/07/02 05:54:07;;;;;;;3.20;2.90;;;;;;;;;;4873385;29;20056;-72
2022/07/02 05:56:37;;;;;;;8.63;3.38;;;;;;;;;;4872114;29;20057;-72
2022/07/02 05:59:07;;;;;;;6.68;3.30;;;;;;;;;;4872418;29;20057;-73
2022/07/02 06:01:36;;;;;;;6.35;3.25;;;;;;;;;;4874163;29;20272;-72
2022/07/02 06:04:06;;;;;;;5.40;3.17;;;;;;;;;;4873466;29;20045;-71
2022/07/02 06:09:25;;;;;;;8.98;3.17;;;;;;;;;;4873074;29;20060;-72
2022/07/02 06:11:55;;;;;;;5.43;2.97;;;;;;;;;;4872328;29;20053;-73
2022/07/02 06:14:24;;;;;;;5.07;3.17;;;;;;;;;;4872917;29;20049;-73
2022/07/02 06:16:54;;;;;;;6.20;2.85;;;;;;;;;;4872902;29;20060;-71
2022/07/02 06:19:24;;;;;;;5.57;3.28;;;;;;;;;;4874266;29;20049;-72
2022/07/02 06:21:54;;;;;;;7.30;3.17;;;;;;;;;;4876855;29;20512;-72
2022/07/02 06:24:24;;;;;;;8.23;3.17;;;;;;;;;;4876957;29;20489;-73
2022/07/02 06:26:54;;;;;;;8.10;3.03;;;;;;;;;;4876485;29;20048;-73
2022/07/02 06:29:24;;;;;;;8.02;2.80;;;;;;;;;;4876681;29;20056;-71
2022/07/02 06:31:55;;;;;;;5.25;3.28;;;;;;;;;;4876674;29;20476;-73
2022/07/02 06:34:25;;;;;;;5.88;2.83;;;;;;;;;;4876703;29;20866;-72
2022/07/02 06:36:54;;;;;;;10.15;2.80;;;;;;;;;;4875457;29;20053;-72
2022/07/02 06:39:27;;;;;;;6.82;2.67;;;;;;;;;;4876570;29;20049;-72
2022/07/02 06:44:47;;;;;;;8.10;2.53;;;;;;;;;;4876032;29;20060;-72
2022/07/02 06:47:18;;;;;;;5.90;2.72;;;;;;;;;;4876009;29;20057;-72
2022/07/02 06:49:49;;;;;;;6.03;3.15;;;;;;;;;;4876226;29;20068;-72
2022/07/02 06:52:19;;;;;;;8.07;2.90;;;;;;;;;;4876380;29;20524;-71
2022/07/02 06:54:48;;;;;;;8.02;2.90;;;;;;;;;;4876366;29;20079;-73
2022/07/02 06:57:18;;;;;;;6.85;2.80;;;;;;;;;;4876062;29;20049;-72
2022/07/02 06:59:54;;;;;;;4.90;2.92;;;;;;;;;;4876841;29;20052;-72
2022/07/02 07:02:24;;;;;;;6.00;2.92;;;;;;;;;;4876036;29;20424;-72
2022/07/02 07:04:54;;;;;;;4.18;2.88;;;;;;;;;;4875927;29;20064;-72
2022/07/02 07:07:26;;;;;;;5.75;3.08;;;;;;;;;;4874865;29;20524;-72
2022/07/02 07:09:56;;;;;;;9.88;3.22;;;;;;;;;;4875805;29;20505;-73
2022/07/02 07:12:26;;;;;;;7.72;2.78;;;;;;;;;;4876135;29;20378;-72
2022/07/02 07:15:00;;;;;;;5.68;2.65;;;;;;;;;;4876401;29;20053;-73
2022/07/02 07:17:32;;;;;;;7.82;2.60;;;;;;;;;;4875965;29;20053;-72
2022/07/02 07:20:03;;;;;;;9.75;3.53;;;;;;;;;;4875705;29;20060;-73
2022/07/02 07:22:34;;;;;;;4.35;3.33;;;;;;;;;;4876073;29;20405;-73
2022/07/02 07:25:04;;;;;;;7.63;3.08;;;;;;;;;;4875993;29;20060;-72
2022/07/02 07:27:34;;;;;;;8.68;3.13;;;;;;;;;;4876006;29;20072;-73
2022/07/02 07:30:04;;;;;;;7.97;2.83;;;;;;;;;;4876080;29;20061;-72
2022/07/02 07:32:34;;;;;;;3.67;2.70;;;;;;;;;;4875139;29;20056;-71
2022/07/02 07:35:04;;;;;;;7.05;3.35;;;;;;;;;;4875646;29;20516;-71
2022/07/02 07:37:37;;;;;;;5.97;3.10;;;;;;;;;;4875558;29;20052;-74
2022/07/02 07:40:11;;;;;;;7.45;3.40;;;;;;;;;;4873961;29;20056;-72
2022/07/02 07:42:42;;;;;;;9.73;3.00;;;;;;;;;;4875629;29;21192;-73
2022/07/02 07:45:11;;;;;;;5.40;2.50;;;;;;;;;;4875086;29;20068;-72
2022/07/02 07:47:41;;;;;;;5.32;3.05;;;;;;;;;;4875962;29;20052;-73
2022/07/02 07:50:11;;;;;;;5.93;3.10;;;;;;;;;;4874347;29;20076;-71
2022/07/02 07:52:41;;;;;;;7.13;2.80;;;;;;;;;;4875099;29;20056;-73
2022/07/02 07:55:10;;;;;;;5.90;3.25;;;;;;;;;;4875423;29;20582;-72
2022/07/02 07:57:40;;;;;;;7.10;2.92;;;;;;;;;;4875047;29;20049;-73
2022/07/02 08:00:11;;;;;;;5.47;2.60;;;;;;;;;;4875406;29;20052;-72
2022/07/02 08:02:40;;;;;;;7.80;2.90;;;;;;;;;;4875509;29;20060;-71
2022/07/02 08:05:10;;;;;;;4.60;2.70;;;;;;;;;;4873727;29;20064;-71
2022/07/02 08:07:41;;;;;;;4.65;2.95;;;;;;;;;;4875038;29;20402;-72
2022/07/02 08:10:16;;;;;;;7.93;2.80;;;;;;;;;;4874966;29;20061;-72
2022/07/02 08:12:48;;;;;;;7.45;3.05;;;;;;;;;;4875721;29;20071;-71
2022/07/02 08:15:18;;;;;;;6.63;3.30;;;;;;;;;;4875020;29;20052;-72
2022/07/02 08:17:48;;;;;;;5.65;3.05;;;;;;;;;;4875269;29;20424;-72
2022/07/02 08:20:18;;;;;;;6.50;3.03;;;;;;;;;;4874888;29;20057;-71
2022/07/02 08:22:50;;;;;;;5.20;2.40;;;;;;;;;;4874951;29;20063;-71
2022/07/02 08:25:21;;;;;;;6.07;2.83;;;;;;;;;;4874529;29;20053;-72
2022/07/02 08:27:51;;;;;;;4.05;2.92;;;;;;;;;;4874959;29;20484;-71
2022/07/02 08:30:21;;;;;;;5.45;2.67;;;;;;;;;;4874513;29;20139;-71
2022/07/02 08:32:51;;;;;;;4.57;2.85;;;;;;;;;;4874785;29;20059;-73
2022/07/02 08:35:21;;;;;;;10.15;3.20;;;;;;;;;;4874098;29;20057;-72
2022/07/02 08:37:52;;;;;;;6.20;3.47;;;;;;;;;;4874889;29;20062;-72
2022/07/02 08:40:23;;;;;;;;;;;;;;;;;;4874926;29;20053;-71
2022/07/02 08:42:55;;;;;;;9.27;3.38;;;;;;;;;;4873392;29;19932;-72
2022/07/02 08:45:29;;;;;;;6.68;3.08;;;;;;;;;;4874275;29;20057;-71
2022/07/02 08:48:01;;;;;;;3.75;3.17;;;;;;;;;;4874494;29;20045;-72
2022/07/02 08:50:32;;;;;;;4.20;3.05;;;;;;;;;;4874179;29;20052;-71
2022/07/02 08:53:04;;;;;;;5.88;3.17;;;;;;;;;;4874016;29;20056;-72
2022/07/02 08:55:35;;;;;;;5.78;3.50;;;;;;;;;;4874370;29;20075;-72
2022/07/02 08:58:06;;;;;;;9.10;3.75;;;;;;;;;;4874188;29;20520;-71
2022/07/02 09:00:36;;;;;;;8.05;2.95;;;;;;;;;;4873858;29;20052;-71
2022/07/02 09:03:08;;;;;;;5.22;3.05;;;;;;;;;;4874437;29;20045;-71
2022/07/02 09:05:42;;;;;;;5.97;3.35;;;;;;;;;;4874358;29;20444;-72
2022/07/02 09:08:17;;;;;;;8.48;3.20;;;;;;;;;;4873987;29;20057;-72
2022/07/02 09:10:50;;;;;;;6.45;3.35;;;;;;;;;;4873652;29;20057;-71
2022/07/02 09:13:22;;;;;;;8.82;3.40;;;;;;;;;;4874173;29;20064;-71
2022/07/02 09:15:53;;;;;;;5.47;3.00;;;;;;;;;;4873534;29;20535;-71
2022/07/02 09:18:24;;;;;;;7.57;2.97;;;;;;;;;;4873917;29;20056;-71
2022/07/02 09:20:55;;;;;;;7.63;2.90;;;;;;;;;;4873613;29;20049;-71
2022/07/02 09:23:25;;;;;;;7.20;2.67;;;;;;;;;;4873781;29;20053;-71
2022/07/02 09:25:55;;;;;;;6.13;2.90;;;;;;;;;;4873515;29;20064;-71
2022/07/02 09:28:25;;;;;;;4.35;2.80;;;;;;;;;;4873588;29;20064;-71
2022/07/02 09:31:05;;;;;;;9.65;3.15;;;;;;;;;;4872601;29;20052;-71
2022/07/02 09:33:40;;;;;;;9.40;3.22;;;;;;;;;;4873481;29;20049;-71
2022/07/02 09:36:12;;;;;;;11.45;2.85;;;;;;;;;;4873744;29;20061;-72
2022/07/02 09:38:48;;;;;;;4.78;2.95;;;;;;;;;;4872101;29;20068;-71
2022/07/02 09:41:26;;;;;;;3.63;2.72;;;;;;;;;;4872507;29;20045;-71
2022/07/02 09:44:03;;;;;;;9.38;3.00;;;;;;;;;;4873960;29;20508;-71
2022/07/02 09:46:33;;;;;;;7.80;3.15;;;;;;;;;;4873537;29;20056;-71
2022/07/02 09:49:08;;;;;;;5.20;2.80;;;;;;;;;;4872970;29;20049;-71
2022/07/02 09:51:52;;;;;;;7.75;2.97;;;;;;;;;;4871892;29;20508;-71
2022/07/02 09:54:25;;;;;;;5.00;2.95;;;;;;;;;;4870826;29;20049;-78
2022/07/02 09:56:56;;;;;;;5.68;2.97;;;;;;;;;;4873234;29;20396;-71
2022/07/02 09:59:27;;;;;;;6.97;2.83;;;;;;;;;;4873412;29;20045;-76
2022/07/02 10:01:57;;;;;;;4.30;3.10;;;;;;;;;;4873271;29;20061;-71
2022/07/02 10:04:28;;;;;;;5.50;2.90;;;;;;;;;;4873448;29;20519;-72
2022/07/02 10:07:00;;;;;;;9.48;3.00;;;;;;;;;;4873392;29;20060;-74
2022/07/02 10:09:30;;;;;;;8.77;3.30;;;;;;;;;;4873699;29;20088;-71
2022/07/02 10:12:00;;;;;;;6.95;2.88;;;;;;;;;;4873038;29;20060;-72
2022/07/02 10:14:34;;;;;;;9.05;3.20;;;;;;;;;;4872168;29;20060;-71
2022/07/02 10:17:05;;;;;;;4.90;2.92;;;;;;;;;;4872713;29;20517;-73
2022/07/02 10:19:39;;;;;;;7.05;3.03;;;;;;;;;;4873056;29;20069;-70
2022/07/02 10:22:09;;;;;;;6.53;3.10;;;;;;;;;;4873534;29;20052;-74
2022/07/02 10:24:40;;;;;;;4.47;2.70;;;;;;;;;;4873306;29;20053;-72
2022/07/02 10:27:11;;;;;;;6.65;2.90;;;;;;;;;;4873149;29;20064;-72
2022/07/02 10:29:42;;;;;;;6.03;2.60;;;;;;;;;;4872605;29;20049;-72
2022/07/02 10:32:35;;;;;;;4.80;3.03;;;;;;;;;;4872870;29;20052;-72
2022/07/02 10:35:16;;;;;;;15.65;2.88;;;;;;;;;;4872667;29;20068;-71
2022/07/02 10:37:46;;;;;;;4.37;3.03;;;;;;;;;;4872545;29;20045;-72
2022/07/02 10:40:20;;;;;;;5.05;2.97;;;;;;;;;;4872449;29;20060;-72
2022/07/02 10:42:53;;;;;;;6.88;2.78;;;;;;;;;;4873474;29;20493;-72
2022/07/02 10:45:23;;;;;;;7.00;2.75;;;;;;;;;;4872901;29;20520;-72
2022/07/02 10:48:06;;;;;;;6.93;3.20;;;;;;;;;;4873519;29;20048;-72
2022/07/02 10:50:39;;;;;;;4.80;2.50;;;;;;;;;;4872816;29;20053;-72
2022/07/02 10:53:11;;;;;;;4.70;2.70;;;;;;;;;;4872699;29;20053;-70
2022/07/02 10:55:52;;;;;;;3.90;2.97;;;;;;;;;;4871812;29;20061;-72
2022/07/02 10:58:30;;;;;;;4.73;2.67;;;;;;;;;;4871845;29;20536;-71
2022/07/02 11:01:12;;;;;;;6.90;2.70;;;;;;;;;;4871048;29;20306;-72
2022/07/02 11:03:59;;;;;;;3.92;2.60;;;;;;;;;;4872690;29;20060;-72
2022/07/02 11:06:31;;;;;;;4.95;2.85;;;;;;;;;;4873874;29;20049;-72
2022/07/02 11:09:06;;;;;;;9.27;2.78;;;;;;;;;;4876105;29;20053;-70
2022/07/02 11:11:36;;;;;;;5.28;2.92;;;;;;;;;;4875755;29;20041;-71
2022/07/02 11:14:13;;;;;;;6.82;2.65;;;;;;;;;;4876914;29;20049;-72
2022/07/02 11:16:48;;;;;;;6.95;2.47;;;;;;;;;;4876110;29;20052;-72
2022/07/02 11:19:27;;;;;;;12.65;2.70;;;;;;;;;;4874699;29;20059;-72
2022/07/02 11:22:02;;;;;;;5.10;2.35;;;;;;;;;;4875638;29;20053;-72
2022/07/02 11:24:33;;;;;;;16.13;2.85;;;;;;;;;;4875607;29;20045;-75
2022/07/02 11:27:03;;;;;;;3.40;2.50;;;;;;;;;;4874187;29;20048;-73
2022/07/02 11:29:33;;;;;;;4.13;2.40;;;;;;;;;;4875519;29;20045;-72
2022/07/02 11:32:03;;;;;;;7.80;2.63;;;;;;;;;;4875377;29;20054;-73
2022/07/02 11:34:33;;;;;;;6.85;2.22;;;;;;;;;;4875707;29;20053;-75
2022/07/02 11:37:03;;;;;;;7.18;2.70;;;;;;;;;;4875735;29;20065;-72
2022/07/02 11:39:33;;;;;;;5.50;2.53;;;;;;;;;;4875820;29;20056;-72
2022/07/02 11:42:03;;;;;;;14.00;2.83;;;;;;;;;;4874876;29;20504;-73
2022/07/02 11:44:33;;;;;;;10.02;2.33;;;;;;;;;;4875656;29;20053;-73
2022/07/02 11:47:03;;;;;;;9.77;2.60;;;;;;;;;;4875323;29;20044;-72
2022/07/02 11:49:36;;;;;;;8.68;2.30;;;;;;;;;;4875638;29;20123;-73
2022/07/02 11:52:07;;;;;;;6.90;2.60;;;;;;;;;;4873989;29;20065;-73
2022/07/02 11:54:43;;;;;;;5.43;2.45;;;;;;;;;;4875378;29;20049;-77
2022/07/02 11:57:14;;;;;;;7.28;2.20;;;;;;;;;;4875399;29;20052;-72
2022/07/02 11:59:51;;;;;;;9.73;2.63;;;;;;;;;;4875292;29;21199;-72
2022/07/02 12:02:22;;;;;;;6.57;2.25;;;;;;;;;;4875603;29;20049;-73
2022/07/02 12:04:52;;;;;;;7.85;2.33;;;;;;;;;;4874462;29;20527;-73
2022/07/02 12:07:21;;;;;;;9.75;2.28;;;;;;;;;;4874768;29;20498;-72
2022/07/02 12:09:52;;;;;;;4.97;2.05;;;;;;;;;;4874641;29;20516;-72
2022/07/02 12:12:23;;;;;;;3.35;2.40;;;;;;;;;;4874587;29;20057;-74
2022/07/02 12:14:54;;;;;;;6.82;2.33;;;;;;;;;;4874835;29;20826;-75
2022/07/02 12:17:24;;;;;;;7.93;2.70;;;;;;;;;;4874551;29;20045;-74
2022/07/02 12:19:54;;;;;;;7.95;2.50;;;;;;;;;;4873964;29;20064;-72
2022/07/02 12:22:29;;;;;;;14.73;2.90;;;;;;;;;;4874725;29;20053;-73
2022/07/02 12:25:00;;;;;;;4.93;2.15;;;;;;;;;;4874470;29;20501;-72
2022/07/02 12:27:32;;;;;;;5.93;1.90;;;;;;;;;;4874342;29;20063;-72
2022/07/02 12:30:14;;;;;;;4.10;1.88;;;;;;;;;;4874347;29;20057;-71
2022/07/02 12:32:52;;;;;;;5.07;1.93;;;;;;;;;;4874446;29;20414;-74
2022/07/02 12:35:22;;;;;;;8.48;2.20;;;;;;;;;;4874341;29;20285;-71
2022/07/02 12:37:57;;;;;;;25.13;4.15;;;;;;;;;;4874696;29;20053;-74
2022/07/02 12:40:27;;;;;;;17.05;2.72;;;;;;;;;;4873853;29;20056;-72
2022/07/02 12:42:59;;;;;;;19.47;8.27;;;;;;;;;;4873963;29;20496;-72
2022/07/02 12:45:35;;;;;;;;;;;;;;;;;;4874379;29;20496;-72
2022/07/02 12:48:08;;;;;;;7.75;2.40;;;;;;;;;;4874442;29;20418;-73
2022/07/02 12:50:46;;;;;;;17.80;3.17;;;;;;;;;;4872730;29;20056;-75
2022/07/02 12:53:18;;;;;;;6.47;2.22;;;;;;;;;;4873533;29;20596;-76
2022/07/02 12:55:58;;;;;;;7.72;2.55;;;;;;;;;;4873986;29;20083;-72
2022/07/02 12:58:29;;;;;;;15.05;2.28;;;;;;;;;;4873870;29;20056;-78
2022/07/02 13:01:01;;;;;;;31.48;4.20;;;;;;;;;;4873814;29;20060;-76
2022/07/02 13:03:32;;;;;;;4.25;2.22;;;;;;;;;;4874460;29;20501;-77
2022/07/02 13:06:02;;;;;;;13.00;2.70;;;;;;;;;;4873884;29;20060;-82
2022/07/02 13:08:32;;;;;;;9.48;2.55;;;;;;;;;;4874337;29;20428;-82
2022/07/02 13:11:04;;;;;;;8.57;3.67;;;;;;;;;;4874020;29;20072;-80
2022/07/02 13:13:34;;;;;;;11.07;2.70;;;;;;;;;;4874317;29;20373;-80
2022/07/02 13:16:05;;;;;;;12.77;2.45;;;;;;;;;;4874327;29;20049;-77
2022/07/02 13:18:36;;;;;;;13.38;2.58;;;;;;;;;;4873749;29;20105;-78
2022/07/02 13:21:06;;;;;;;8.50;2.63;;;;;;;;;;4874225;29;20052;-80
2022/07/02 13:23:36;;;;;;;4.80;3.23;;;;;;;;;;4872819;29;20060;-80
2022/07/02 13:26:05;;;;;;;18.60;2.80;;;;;;;;;;4872812;29;20446;-77
2022/07/02 13:28:36;;;;;;;14.60;3.47;;;;;;;;;;4873553;29;20294;-78
2022/07/02 13:31:07;;;;;;;7.30;2.55;;;;;;;;;;4873436;29;20049;-78
2022/07/02 13:33:36;;;;;;;14.00;2.65;;;;;;;;;;4873676;29;20053;-79
2022/07/02 13:36:06;;;;;;;11.43;2.80;;;;;;;;;;4873266;29;20493;-81
2022/07/02 13:38:36;;;;;;;11.37;2.70;;;;;;;;;;4873542;29;20049;-78
2022/07/02 13:41:06;;;;;;;13.60;3.10;;;;;;;;;;4873516;29;20056;-76
2022/07/02 13:43:36;;;;;;;6.38;2.25;;;;;;;;;;4872975;29;20068;-79
2022/07/02 13:46:05;;;;;;;11.23;2.77;;;;;;;;;;4873474;29;20060;-78
2022/07/02 13:48:35;;;;;;;10.07;2.30;;;;;;;;;;4873416;29;20057;-78
2022/07/02 13:51:05;;;;;;;5.50;2.27;;;;;;;;;;4873236;29;20479;-80
2022/07/02 13:53:35;;;;;;;8.57;2.53;;;;;;;;;;4874071;29;20041;-78
2022/07/02 13:56:05;;;;;;;7.53;2.13;;;;;;;;;;4872078;29;20060;-79
2022/07/02 13:58:35;;;;;;;10.65;2.20;;;;;;;;;;4870645;29;20053;-82
2022/07/02 14:01:06;;;;;;;12.25;3.10;;;;;;;;;;4872639;29;20060;-78
2022/07/02 14:03:37;;;;;;;11.95;2.75;;;;;;;;;;4872262;29;20152;-80
2022/07/02 14:06:08;;;;;;;27.17;4.00;;;;;;;;;;4872768;29;20536;-77
2022/07/02 14:08:38;;;;;;;8.75;3.35;;;;;;;;;;4872929;29;20401;-81
2022/07/02 14:11:11;;;;;;;12.20;2.70;;;;;;;;;;4872592;29;20044;-78
2022/07/02 14:13:41;;;;;;;18.38;2.72;;;;;;;;;;4872930;29;20057;-81
2022/07/02 14:16:16;;;;;;;9.60;2.17;;;;;;;;;;4872575;29;20053;-80
2022/07/02 14:18:47;;;;;;;9.30;2.80;;;;;;;;;;4873396;29;20049;-79
2022/07/02 14:21:17;;;;;;;11.43;2.97;;;;;;;;;;4873165;29;20668;-79
2022/07/02 14:23:46;;;;;;;17.75;2.80;;;;;;;;;;4872203;29;20053;-83
2022/07/02 14:26:17;;;;;;;13.05;2.40;;;;;;;;;;4873187;29;20041;-79
2022/07/02 14:28:47;;;;;;;6.82;2.22;;;;;;;;;;4872956;29;20049;-80
2022/07/02 14:31:17;;;;;;;8.00;2.50;;;;;;;;;;4872879;29;20041;-81
2022/07/02 14:33:47;;;;;;;;;;;;;;;;;;4873166;29;20060;-78
2022/07/02 15:18:32;;;;;;;8.82;2.30;;;;;;;;;;5064440;28;20468;-78
2022/07/02 15:21:13;;;;;;;7.60;2.00;;;;;;;;;;5063945;28;20056;-78
2022/07/02 15:23:48;;;;;;;8.50;2.63;;;;;;;;;;5064219;28;20040;-77
2022/07/02 15:26:21;;;;;;;10.05;2.20;;;;;;;;;;5063844;28;20045;-75
2022/07/02 15:28:52;;;;;;;8.05;1.92;;;;;;;;;;5064405;28;20053;-74
2022/07/02 15:31:22;;;;;;;14.30;2.50;;;;;;;;;;5064252;28;20411;-75
2022/07/02 15:33:54;;;;;;;11.68;2.20;;;;;;;;;;5063718;28;20055;-74
2022/07/02 15:36:26;;;;;;;7.32;2.10;;;;;;;;;;5063349;28;20678;-74
2022/07/02 15:38:56;;;;;;;9.02;2.10;;;;;;;;;;5063648;28;20048;-73
2022/07/02 15:41:28;;;;;;;8.07;2.40;;;;;;;;;;5063834;28;20067;-76
2022/07/02 15:43:59;;;;;;;28.55;2.70;;;;;;;;;;5063533;28;20476;-74
2022/07/02 15:46:30;;;;;;;13.80;2.97;;;;;;;;;;5062855;28;20079;-74
2022/07/02 15:49:00;;;;;;;;;;;;;;;;;;5064000;28;20041;-75
2022/07/02 15:51:33;;;;;;;8.20;2.00;;;;;;;;;;5062501;28;19932;-75
2022/07/02 15:54:13;;;;;;;17.58;2.65;;;;;;;;;;5063148;28;20044;-73
2022/07/02 15:56:47;;;;;;;11.35;2.67;;;;;;;;;;5061970;28;20059;-76